Time;durP1;ratioP1;P1;durP2;ratioP2;P2;SDS_P1;SDS_P2;PMS_P1;PMS_P2;Temp;Humidity;BMP_temperature;BMP_pressure;BME280_temperature;BME280_humidity;BME280_pressure;Samples;Min_cycle;Max_cycle;Signal;HPM_P1;HPM_P2
2022/12/14 00:00:54;;;;;;;26.53;17.00;;;-1.90;99.90;;;;;;5087362;28;20208;-50
2022/12/14 00:03:22;;;;;;;23.80;16.47;;;-1.80;99.90;;;;;;5087809;28;20272;-48
2022/12/14 00:05:49;;;;;;;21.47;15.83;;;-1.80;99.90;;;;;;5088461;28;20567;-49
2022/12/14 00:08:18;;;;;;;23.77;16.03;;;-1.80;99.90;;;;;;5084142;28;20580;-53
2022/12/14 00:10:45;;;;;;;22.93;16.30;;;-1.80;99.90;;;;;;5087431;28;20198;-49
2022/12/14 00:13:14;;;;;;;24.13;16.03;;;-1.80;99.90;;;;;;5088137;28;20202;-49
2022/12/14 00:15:42;;;;;;;23.77;15.73;;;-1.80;99.90;;;;;;5089125;28;20666;-49
2022/12/14 00:18:10;;;;;;;29.47;17.07;;;-1.80;99.90;;;;;;5088289;28;20289;-49
2022/12/14 00:20:37;;;;;;;26.13;16.77;;;-1.80;99.90;;;;;;5090020;28;20576;-49
2022/12/14 00:23:04;;;;;;;23.43;16.97;;;-1.80;99.90;;;;;;5085706;28;20210;-50
2022/12/14 00:25:32;;;;;;;22.93;16.20;;;-1.80;99.90;;;;;;5087464;28;20249;-53
2022/12/14 00:27:59;;;;;;;24.73;17.57;;;-1.80;99.90;;;;;;5087609;28;20208;-49
2022/12/14 00:30:26;;;;;;;23.83;16.53;;;-1.70;99.90;;;;;;5089223;28;20207;-49
2022/12/14 00:32:53;;;;;;;26.87;16.70;;;-1.70;99.90;;;;;;5091974;28;20206;-49
2022/12/14 00:35:20;;;;;;;26.37;17.60;;;-1.60;99.90;;;;;;5090127;28;20716;-49
2022/12/14 00:37:47;;;;;;;26.17;17.37;;;-1.60;99.90;;;;;;5091922;28;20202;-49
2022/12/14 00:40:14;;;;;;;34.33;18.63;;;-1.70;99.90;;;;;;5090080;28;20205;-48
2022/12/14 00:42:43;;;;;;;23.07;15.87;;;-1.60;99.90;;;;;;5083377;28;20199;-49
2022/12/14 00:45:10;;;;;;;28.27;19.37;;;-1.60;99.90;;;;;;5088933;28;20223;-49
2022/12/14 00:47:37;;;;;;;27.20;17.83;;;-1.60;99.90;;;;;;5093472;28;20285;-49
2022/12/14 00:50:05;;;;;;;30.07;17.80;;;-1.70;99.90;;;;;;5088650;28;20202;-50
2022/12/14 00:52:32;;;;;;;25.73;17.00;;;-1.70;99.90;;;;;;5092626;28;20210;-50
2022/12/14 00:54:59;;;;;;;28.93;16.67;;;-1.70;99.90;;;;;;5093514;28;20214;-52
2022/12/14 00:57:28;;;;;;;28.83;18.97;;;-1.70;99.90;;;;;;5086615;28;20202;-49
2022/12/14 00:59:57;;;;;;;30.10;17.50;;;-1.70;99.90;;;;;;5093659;28;20202;-53
2022/12/14 01:02:24;;;;;;;28.20;17.77;;;-1.70;99.90;;;;;;5092237;28;20200;-49
2022/12/14 01:04:51;;;;;;;27.43;17.67;;;-1.70;99.90;;;;;;5089151;28;20232;-51
2022/12/14 01:07:18;;;;;;;24.97;16.43;;;-1.70;99.90;;;;;;5089635;28;20307;-51
2022/12/14 01:09:45;;;;;;;24.33;16.77;;;-1.70;99.90;;;;;;5093362;28;20199;-49
2022/12/14 01:12:12;;;;;;;21.60;16.23;;;-1.70;99.90;;;;;;5091777;28;20218;-50
2022/12/14 01:14:39;;;;;;;24.20;17.13;;;-1.70;99.90;;;;;;5093088;28;20279;-49
2022/12/14 01:17:07;;;;;;;27.17;18.67;;;-1.70;99.90;;;;;;5092599;28;20205;-49
2022/12/14 01:19:34;;;;;;;25.90;17.67;;;-1.60;99.90;;;;;;5083532;28;20210;-50
2022/12/14 01:22:01;;;;;;;23.57;16.13;;;-1.70;99.90;;;;;;5098206;28;20222;-50
2022/12/14 01:24:28;;;;;;;24.30;17.40;;;-1.70;99.90;;;;;;5084746;28;20232;-50
2022/12/14 01:26:55;;;;;;;22.60;16.40;;;-1.60;99.90;;;;;;5088152;28;20272;-50
2022/12/14 01:29:22;;;;;;;24.37;17.20;;;-1.60;99.90;;;;;;5091520;28;20214;-50
2022/12/14 01:31:49;;;;;;;22.47;15.33;;;-1.70;99.90;;;;;;5092372;28;20210;-50
2022/12/14 01:34:18;;;;;;;24.73;15.73;;;-1.60;99.90;;;;;;5090523;28;20229;-50
2022/12/14 01:36:45;;;;;;;23.10;16.70;;;-1.60;99.90;;;;;;5092912;28;20213;-50
2022/12/14 01:39:14;;;;;;;24.00;16.10;;;-1.60;99.90;;;;;;5093044;28;20202;-51
2022/12/14 01:41:44;;;;;;;24.90;16.20;;;-1.70;99.90;;;;;;5087282;28;20260;-51
2022/12/14 01:44:53;;;;;;;24.03;16.20;;;-1.70;99.90;;;;;;5091232;28;20225;-50
2022/12/14 01:47:26;;;;;;;24.97;17.47;;;-1.70;99.90;;;;;;5091588;28;20224;-53
2022/12/14 01:49:59;;;;;;;27.60;19.73;;;-1.80;99.90;;;;;;5100307;28;20196;-49
2022/12/14 01:52:34;;;;;;;20.20;16.43;;;-1.70;99.90;;;;;;5090861;28;20207;-49
2022/12/14 01:55:05;;;;;;;26.93;18.13;;;-1.60;99.90;;;;;;5082848;28;20223;-50
2022/12/14 01:57:38;;;;;;;25.83;15.73;;;-1.70;99.90;;;;;;5091461;28;20202;-51
2022/12/14 02:00:08;;;;;;;26.00;17.13;;;-1.70;99.90;;;;;;5084364;28;20204;-50
2022/12/14 02:02:37;;;;;;;21.60;15.93;;;-1.80;99.90;;;;;;5089556;28;20225;-49
2022/12/14 02:05:09;;;;;;;26.23;17.87;;;-1.70;99.90;;;;;;5092056;28;20235;-50
2022/12/14 02:07:37;;;;;;;27.83;14.80;;;-1.60;99.90;;;;;;5090718;28;20228;-51
2022/12/14 02:10:06;;;;;;;25.57;18.30;;;-1.60;99.90;;;;;;5088753;28;20198;-51
2022/12/14 02:12:38;;;;;;;25.50;17.07;;;-1.60;99.90;;;;;;5088548;28;20691;-50
2022/12/14 02:15:06;;;;;;;26.00;16.57;;;-1.60;99.90;;;;;;5088162;28;20310;-49
2022/12/14 02:17:33;;;;;;;20.30;15.37;;;-1.60;99.90;;;;;;5098284;28;20197;-50
2022/12/14 02:20:03;;;;;;;23.30;16.47;;;-1.70;99.90;;;;;;5099088;28;20202;-51
2022/12/14 02:23:03;;;;;;;23.90;17.00;;;-1.60;99.90;;;;;;5093978;28;20207;-50
2022/12/14 02:26:30;;;;;;;24.57;15.83;;;-1.60;99.90;;;;;;5100944;28;20232;-51
2022/12/14 02:29:32;;;;;;;24.60;16.23;;;-1.60;99.90;;;;;;5095488;28;20201;-54
2022/12/14 02:32:12;;;;;;;22.10;16.50;;;-1.60;99.90;;;;;;5090274;28;20209;-50
2022/12/14 02:34:51;;;;;;;26.57;17.57;;;-1.60;99.90;;;;;;5088414;28;20232;-50
2022/12/14 02:37:23;;;;;;;28.30;16.93;;;-1.60;99.90;;;;;;5090495;28;20709;-50
2022/12/14 02:40:00;;;;;;;27.50;17.90;;;-1.60;99.90;;;;;;5090846;28;20201;-50
2022/12/14 02:42:41;;;;;;;28.47;17.57;;;-1.60;99.90;;;;;;5089978;28;20215;-50
2022/12/14 02:45:15;;;;;;;25.77;16.80;;;-1.60;99.90;;;;;;5084516;28;20220;-50
2022/12/14 02:47:54;;;;;;;28.43;18.10;;;-1.60;99.90;;;;;;5093558;28;20586;-51
2022/12/14 02:50:25;;;;;;;25.63;17.13;;;-1.60;99.90;;;;;;5084945;28;20206;-51
2022/12/14 02:53:03;;;;;;;26.50;17.80;;;-1.60;99.90;;;;;;5086610;28;20303;-50
2022/12/14 02:55:34;;;;;;;25.17;16.87;;;-1.60;99.90;;;;;;5086254;28;20218;-50
2022/12/14 02:58:05;;;;;;;27.27;17.70;;;-1.60;99.90;;;;;;5090796;28;20197;-50
2022/12/14 03:00:36;;;;;;;29.57;18.33;;;-1.60;99.90;;;;;;5086383;28;20198;-51
2022/12/14 03:03:05;;;;;;;25.43;16.10;;;-1.50;99.90;;;;;;5083776;28;20660;-52
2022/12/14 03:05:32;;;;;;;25.60;17.27;;;-1.50;99.90;;;;;;5084605;28;20704;-50
2022/12/14 03:08:03;;;;;;;25.10;17.57;;;-1.60;99.90;;;;;;5088261;28;20254;-50
2022/12/14 03:10:36;;;;;;;25.17;18.43;;;-1.50;99.90;;;;;;5087165;28;20252;-54
2022/12/14 03:13:09;;;;;;;23.73;16.70;;;-1.50;99.90;;;;;;5086714;28;20684;-51
2022/12/14 03:15:42;;;;;;;26.73;18.33;;;-1.50;99.90;;;;;;5089710;28;20334;-50
2022/12/14 03:18:13;;;;;;;25.57;18.23;;;-1.50;99.90;;;;;;5083145;28;20588;-50
2022/12/14 03:20:41;;;;;;;34.57;19.87;;;-1.60;99.90;;;;;;5090050;28;20201;-50
2022/12/14 03:23:12;;;;;;;26.13;19.37;;;-1.60;99.90;;;;;;5086386;28;20198;-50
2022/12/14 03:25:43;;;;;;;29.77;17.40;;;-1.60;99.90;;;;;;5088028;28;20295;-52
2022/12/14 03:28:16;;;;;;;23.63;17.93;;;-1.50;99.90;;;;;;5082361;28;20351;-50
2022/12/14 03:30:52;;;;;;;27.60;17.43;;;-1.40;99.90;;;;;;5092212;28;20222;-49
2022/12/14 03:33:23;;;;;;;22.30;16.53;;;-1.40;99.90;;;;;;5082992;28;20666;-50
2022/12/14 03:35:57;;;;;;;27.23;18.03;;;-1.40;99.90;;;;;;5081393;28;20226;-50
2022/12/14 03:38:31;;;;;;;25.10;16.07;;;-1.40;99.90;;;;;;5091562;28;20199;-51
2022/12/14 03:41:08;;;;;;;26.47;18.37;;;-1.50;99.90;;;;;;5090899;28;20226;-51
2022/12/14 03:43:41;;;;;;;24.07;17.60;;;-1.50;99.90;;;;;;5081445;28;20202;-50
2022/12/14 03:46:13;;;;;;;28.37;18.83;;;-1.50;99.90;;;;;;5090611;28;20291;-49
2022/12/14 03:48:46;;;;;;;28.30;18.10;;;-1.50;99.90;;;;;;5073445;28;20303;-53
2022/12/14 03:51:21;;;;;;;25.80;17.50;;;-1.50;99.90;;;;;;5075525;28;20202;-50
2022/12/14 03:53:56;;;;;;;20.90;16.10;;;-1.50;99.90;;;;;;5082586;28;20220;-51
2022/12/14 03:56:33;;;;;;;29.37;17.87;;;-1.60;99.90;;;;;;5090450;28;20202;-50
2022/12/14 03:59:07;;;;;;;28.00;18.10;;;-1.50;99.90;;;;;;5080023;28;20199;-50
2022/12/14 04:01:45;;;;;;;26.53;17.87;;;-1.60;99.90;;;;;;5085606;28;20258;-51
2022/12/14 04:04:18;;;;;;;28.50;18.20;;;-1.50;99.90;;;;;;5076713;28;20720;-50
2022/12/14 04:06:53;;;;;;;27.90;16.93;;;-1.50;99.90;;;;;;5081315;28;20225;-50
2022/12/14 04:09:30;;;;;;;29.33;18.33;;;-1.40;99.90;;;;;;5111582;28;20237;-51
2022/12/14 04:20:35;;;;;;;26.43;16.23;;;-1.60;99.90;;;;;;5091265;28;20271;-51
2022/12/14 04:23:07;;;;;;;23.83;17.37;;;-1.60;99.90;;;;;;5081843;28;20197;-50
2022/12/14 04:31:18;;;;;;;25.47;18.20;;;-1.50;99.90;;;;;;5065035;28;20223;-50
2022/12/14 04:33:51;;;;;;;23.10;17.37;;;-1.40;99.90;;;;;;5051949;28;20580;-51
2022/12/14 04:36:25;;;;;;;28.37;18.33;;;-1.40;99.90;;;;;;5070052;28;20271;-50
2022/12/14 04:38:57;;;;;;;25.97;17.17;;;-1.40;99.90;;;;;;5068975;28;20227;-49
2022/12/14 04:41:28;;;;;;;26.37;16.83;;;-1.40;99.90;;;;;;5063244;28;20651;-49
2022/12/14 04:43:58;;;;;;;25.53;16.57;;;-1.40;99.90;;;;;;5066207;28;20204;-50
2022/12/14 04:46:28;;;;;;;28.33;17.77;;;-1.50;99.90;;;;;;5049829;28;20266;-51
2022/12/14 04:49:02;;;;;;;24.53;17.50;;;-1.50;99.90;;;;;;5063618;28;20203;-49
2022/12/14 04:51:33;;;;;;;28.53;17.67;;;-1.40;99.90;;;;;;5058151;28;20679;-50
2022/12/14 04:54:04;;;;;;;24.23;16.73;;;-1.40;99.90;;;;;;5068815;28;20222;-50
2022/12/14 04:56:39;;;;;;;28.93;17.47;;;-1.40;99.90;;;;;;5061656;28;20610;-50
2022/12/14 04:59:07;;;;;;;27.13;17.47;;;-1.40;99.90;;;;;;5082373;28;20294;-50
2022/12/14 05:01:48;;;;;;;25.50;17.93;;;-1.40;99.90;;;;;;5080170;28;20645;-50
2022/12/14 05:04:25;;;;;;;27.57;17.23;;;-1.40;99.90;;;;;;5069594;28;20222;-50
2022/12/14 05:07:05;;;;;;;20.47;15.90;;;-1.40;99.90;;;;;;5067603;28;20268;-50
2022/12/14 05:09:36;;;;;;;24.13;15.97;;;-1.40;99.90;;;;;;5073505;28;20201;-50
2022/12/14 05:12:08;;;;;;;24.70;18.03;;;-1.40;99.90;;;;;;5063123;28;20664;-50
2022/12/14 05:14:39;;;;;;;24.83;17.97;;;-1.40;99.90;;;;;;5072780;28;20252;-49
2022/12/14 05:17:07;;;;;;;26.30;18.07;;;-1.40;99.90;;;;;;5066516;28;20664;-49
2022/12/14 05:19:36;;;;;;;29.60;18.30;;;-1.40;99.90;;;;;;5073497;28;20699;-49
2022/12/14 05:22:06;;;;;;;24.50;16.40;;;-1.30;99.90;;;;;;5069729;28;20204;-49
2022/12/14 05:24:35;;;;;;;24.00;17.47;;;-1.30;99.90;;;;;;5073019;28;20223;-49
2022/12/14 05:27:02;;;;;;;27.63;19.23;;;-1.30;99.90;;;;;;5073264;28;20207;-50
2022/12/14 05:29:29;;;;;;;29.83;19.07;;;-1.20;99.90;;;;;;5073254;28;20209;-49
2022/12/14 05:31:56;;;;;;;24.57;18.73;;;-1.20;99.90;;;;;;5071762;28;20297;-49
2022/12/14 05:34:23;;;;;;;25.60;18.80;;;-1.10;99.90;;;;;;5064359;28;20222;-50
2022/12/14 05:36:53;;;;;;;26.50;18.10;;;-1.10;99.90;;;;;;5073088;28;20193;-49
2022/12/14 05:39:20;;;;;;;28.73;19.00;;;-1.10;99.90;;;;;;5074204;28;20202;-49
2022/12/14 05:41:47;;;;;;;26.10;17.93;;;-1.10;99.90;;;;;;5058609;28;20263;-49
2022/12/14 05:44:14;;;;;;;27.33;17.77;;;-1.10;99.90;;;;;;5066719;28;20229;-48
2022/12/14 05:46:41;;;;;;;27.60;17.57;;;-1.10;99.90;;;;;;5072830;28;20221;-50
2022/12/14 05:49:08;;;;;;;26.60;18.27;;;-1.20;99.90;;;;;;5080680;28;20693;-51
2022/12/14 05:51:35;;;;;;;27.63;18.17;;;-1.10;99.90;;;;;;5087464;28;20205;-50
2022/12/14 05:54:04;;;;;;;29.70;18.63;;;-1.10;99.90;;;;;;5072522;28;20197;-51
2022/12/14 05:56:31;;;;;;;23.83;16.77;;;-1.10;99.90;;;;;;5075344;28;20198;-50
2022/12/14 05:58:58;;;;;;;37.93;19.07;;;-1.10;99.90;;;;;;5059076;28;20260;-49
2022/12/14 06:01:25;;;;;;;24.10;16.50;;;-1.10;99.90;;;;;;5071803;28;20665;-50
2022/12/14 06:03:53;;;;;;;26.70;17.57;;;-1.10;99.90;;;;;;5063628;28;20200;-49
2022/12/14 06:06:20;;;;;;;24.57;16.33;;;-1.10;99.90;;;;;;5081257;28;20321;-50
2022/12/14 06:08:48;;;;;;;26.43;17.80;;;-1.10;99.90;;;;;;5071169;28;20206;-50
2022/12/14 06:11:18;;;;;;;25.17;16.37;;;-1.00;99.90;;;;;;5069997;28;20267;-50
2022/12/14 06:13:45;;;;;;;21.73;16.17;;;-1.00;99.90;;;;;;5070445;28;20196;-50
2022/12/14 06:16:14;;;;;;;25.97;17.10;;;-1.00;99.90;;;;;;5071843;28;20251;-49
2022/12/14 06:18:43;;;;;;;21.93;16.43;;;-1.00;99.90;;;;;;5072168;28;20196;-49
2022/12/14 06:21:11;;;;;;;25.63;16.27;;;-1.00;99.90;;;;;;5068515;28;20294;-51
2022/12/14 06:23:38;;;;;;;27.17;17.37;;;-1.00;99.90;;;;;;5061894;28;20214;-49
2022/12/14 06:26:06;;;;;;;27.50;16.10;;;-1.10;99.90;;;;;;5071926;28;20578;-49
2022/12/14 06:28:35;;;;;;;26.57;17.47;;;-1.00;99.90;;;;;;5071853;28;20282;-50
2022/12/14 06:31:03;;;;;;;26.33;16.83;;;-1.00;99.90;;;;;;5071319;28;20255;-49
2022/12/14 06:33:32;;;;;;;25.00;16.77;;;-1.00;99.90;;;;;;5069854;28;20250;-49
2022/12/14 06:35:59;;;;;;;22.83;16.03;;;-1.00;99.90;;;;;;5051668;28;20851;-48
2022/12/14 06:38:26;;;;;;;29.27;20.00;;;-1.00;99.90;;;;;;5051809;28;20208;-49
2022/12/14 06:40:53;;;;;;;25.00;17.83;;;-1.00;99.90;;;;;;5071396;28;20202;-50
2022/12/14 06:43:20;;;;;;;25.73;17.87;;;-0.90;99.90;;;;;;5062294;28;20225;-49
2022/12/14 06:45:49;;;;;;;26.00;18.93;;;-0.80;99.90;;;;;;5067583;28;20218;-51
2022/12/14 06:48:16;;;;;;;33.90;18.77;;;-0.90;99.90;;;;;;5070000;28;20205;-48
2022/12/14 06:50:43;;;;;;;32.50;20.10;;;-0.90;99.90;;;;;;5068419;28;20260;-50
2022/12/14 06:53:12;;;;;;;28.57;19.83;;;-0.90;99.90;;;;;;5060627;28;20565;-49
2022/12/14 06:55:39;;;;;;;30.03;20.60;;;-0.90;99.90;;;;;;5066445;28;20214;-48
2022/12/14 06:58:06;;;;;;;42.77;21.17;;;-0.80;99.90;;;;;;5069106;28;20219;-49
2022/12/14 07:00:33;;;;;;;28.00;17.50;;;-0.70;99.90;;;;;;5065272;28;20224;-49
2022/12/14 07:03:02;;;;;;;29.93;19.23;;;-0.70;99.90;;;;;;5062160;28;20205;-49
2022/12/14 07:05:29;;;;;;;27.70;18.63;;;-0.70;99.90;;;;;;5063603;28;20216;-49
2022/12/14 07:07:56;;;;;;;23.87;16.77;;;-0.60;99.90;;;;;;5063077;28;20283;-50
2022/12/14 07:10:23;;;;;;;32.30;17.23;;;-0.60;99.90;;;;;;5070005;28;20270;-50
2022/12/14 07:12:50;;;;;;;25.80;17.23;;;-0.60;99.90;;;;;;5067757;28;20210;-47
2022/12/14 07:15:17;;;;;;;26.83;16.40;;;-0.60;99.90;;;;;;5073047;28;20714;-49
2022/12/14 07:17:44;;;;;;;23.97;16.63;;;-0.60;99.90;;;;;;5069268;28;20847;-49
2022/12/14 07:20:13;;;;;;;22.70;17.00;;;-0.60;99.90;;;;;;5059106;28;20760;-48
2022/12/14 07:22:40;;;;;;;22.43;17.80;;;-0.60;99.90;;;;;;5063007;28;20201;-49
2022/12/14 07:25:08;;;;;;;29.30;17.43;;;-0.60;99.90;;;;;;5061962;28;20332;-48
2022/12/14 07:27:35;;;;;;;29.20;18.40;;;-0.50;99.90;;;;;;5067668;28;20295;-48
2022/12/14 07:30:02;;;;;;;23.73;16.93;;;-0.50;99.90;;;;;;5068794;28;20202;-50
2022/12/14 07:32:29;;;;;;;29.83;15.37;;;-0.60;99.90;;;;;;5068084;28;20205;-49
2022/12/14 07:34:56;;;;;;;24.97;15.53;;;-0.60;99.90;;;;;;5068649;28;20255;-51
2022/12/14 07:37:25;;;;;;;23.27;15.53;;;-0.50;99.90;;;;;;5068199;28;20287;-48
2022/12/14 07:39:52;;;;;;;22.33;16.07;;;-0.50;99.90;;;;;;5069118;28;20201;-49
2022/12/14 07:42:19;;;;;;;22.37;14.77;;;-0.50;99.90;;;;;;5070431;28;20230;-50
2022/12/14 07:44:46;;;;;;;26.07;15.93;;;-0.50;99.90;;;;;;5076713;28;20220;-49
2022/12/14 07:47:13;;;;;;;24.20;16.37;;;-0.40;99.90;;;;;;5071579;28;20249;-49
2022/12/14 07:49:41;;;;;;;24.27;16.93;;;-0.30;99.90;;;;;;5071745;28;20217;-48
2022/12/14 07:52:08;;;;;;;23.97;16.60;;;-0.20;99.90;;;;;;5070236;28;20208;-49
2022/12/14 07:54:37;;;;;;;31.73;16.87;;;-0.20;99.90;;;;;;5070016;28;20309;-50
2022/12/14 07:57:04;;;;;;;34.80;18.23;;;-0.30;99.90;;;;;;5070019;28;20217;-50
2022/12/14 07:59:31;;;;;;;22.93;15.97;;;-0.30;99.90;;;;;;5070797;28;20207;-50
2022/12/14 08:01:58;;;;;;;23.67;16.53;;;-0.40;99.90;;;;;;5070707;28;20420;-49
2022/12/14 08:04:25;;;;;;;30.47;18.07;;;-0.30;99.90;;;;;;5070122;28;20233;-50
2022/12/14 08:06:52;;;;;;;32.03;18.57;;;-0.30;99.90;;;;;;5070430;28;20221;-50
2022/12/14 08:09:20;;;;;;;32.10;17.33;;;-0.40;99.90;;;;;;5065471;28;20202;-50
2022/12/14 08:11:49;;;;;;;23.97;17.17;;;-0.40;99.90;;;;;;5063508;28;20242;-49
2022/12/14 08:14:17;;;;;;;27.30;19.73;;;-0.30;99.90;;;;;;5070089;28;20704;-49
2022/12/14 08:16:48;;;;;;;26.30;17.60;;;-0.30;99.90;;;;;;5077426;28;20288;-49
2022/12/14 08:19:16;;;;;;;25.03;16.43;;;-0.20;99.90;;;;;;5071062;28;20209;-49
2022/12/14 08:21:44;;;;;;;26.23;17.67;;;-0.20;99.90;;;;;;5069873;28;20637;-49
2022/12/14 08:24:12;;;;;;;28.33;19.37;;;-0.10;99.90;;;;;;5069554;28;20231;-51
2022/12/14 08:26:40;;;;;;;27.07;19.33;;;-0.10;99.90;;;;;;5069806;28;20222;-51
2022/12/14 08:29:13;;;;;;;40.37;19.23;;;-0.10;99.90;;;;;;5070093;28;20679;-49
2022/12/14 08:31:41;;;;;;;39.90;22.93;;;0.00;99.90;;;;;;5070426;28;20202;-49
2022/12/14 08:34:09;;;;;;;30.90;21.40;;;0.00;99.90;;;;;;5070014;28;20230;-50
2022/12/14 08:36:36;;;;;;;32.50;22.10;;;0.00;99.90;;;;;;5070141;28;20205;-50
2022/12/14 08:39:05;;;;;;;38.77;23.37;;;0.00;99.90;;;;;;5069710;28;20205;-49
2022/12/14 08:41:33;;;;;;;30.63;22.70;;;0.00;99.90;;;;;;5067271;28;20318;-50
2022/12/14 08:44:01;;;;;;;28.77;20.00;;;0.10;99.90;;;;;;5067079;28;20260;-49
2022/12/14 08:46:31;;;;;;;28.73;19.47;;;0.10;99.90;;;;;;5066541;28;20588;-50
2022/12/14 08:48:59;;;;;;;25.03;17.40;;;0.00;99.90;;;;;;5062386;28;20206;-50
2022/12/14 08:51:27;;;;;;;35.30;19.20;;;0.00;99.90;;;;;;5071462;28;20203;-51
2022/12/14 08:53:55;;;;;;;28.83;18.90;;;0.10;99.90;;;;;;5072058;28;20258;-51
2022/12/14 08:56:25;;;;;;;38.20;20.73;;;0.10;99.90;;;;;;5071006;28;20655;-51
2022/12/14 08:58:53;;;;;;;29.73;17.63;;;0.10;99.90;;;;;;5068472;28;20199;-50
2022/12/14 09:01:22;;;;;;;20.73;16.50;;;0.10;99.90;;;;;;5073320;28;20589;-50
2022/12/14 09:03:50;;;;;;;21.50;16.20;;;0.20;99.90;;;;;;5069513;28;20552;-50
2022/12/14 09:06:26;;;;;;;32.63;20.10;;;0.30;99.90;;;;;;5071101;28;20240;-50
2022/12/14 09:08:54;;;;;;;26.23;18.13;;;0.30;99.90;;;;;;5060624;28;20197;-51
2022/12/14 09:11:21;;;;;;;25.77;17.43;;;0.30;99.90;;;;;;5064478;28;20193;-50
2022/12/14 09:13:49;;;;;;;23.33;17.30;;;0.40;99.90;;;;;;5073509;28;20261;-50
2022/12/14 09:16:18;;;;;;;26.87;16.97;;;0.50;99.90;;;;;;5065176;28;20203;-50
2022/12/14 09:18:46;;;;;;;25.70;16.67;;;0.50;99.90;;;;;;5069896;28;20205;-50
2022/12/14 09:21:16;;;;;;;31.93;19.03;;;0.50;99.90;;;;;;5068886;28;20208;-50
2022/12/14 09:23:44;;;;;;;32.47;19.97;;;0.50;99.90;;;;;;5070804;28;20198;-52
2022/12/14 09:26:13;;;;;;;34.50;20.00;;;0.50;99.90;;;;;;5071046;28;20218;-50
2022/12/14 09:28:42;;;;;;;38.87;22.23;;;0.60;99.90;;;;;;5069053;28;20234;-50
2022/12/14 09:31:13;;;;;;;41.47;22.63;;;0.60;99.90;;;;;;5072075;28;20217;-51
2022/12/14 09:33:46;;;;;;;31.70;21.17;;;0.50;99.90;;;;;;5057361;28;20728;-50
2022/12/14 09:36:17;;;;;;;33.57;21.87;;;0.50;99.90;;;;;;5084125;28;20200;-50
2022/12/14 09:38:45;;;;;;;32.70;20.93;;;0.60;99.90;;;;;;5093212;28;20205;-51
2022/12/14 09:41:34;;;;;;;32.00;22.20;;;0.60;99.90;;;;;;5092536;28;20204;-50
2022/12/14 09:44:10;;;;;;;38.87;22.17;;;0.60;99.90;;;;;;5064773;28;20719;-50
2022/12/14 09:46:50;;;;;;;32.43;22.10;;;0.60;99.90;;;;;;5072575;28;20264;-50
2022/12/14 09:49:26;;;;;;;38.77;22.10;;;0.60;99.90;;;;;;5091174;28;20583;-50
2022/12/14 09:52:01;;;;;;;30.80;21.90;;;0.70;99.90;;;;;;5077847;28;20635;-51
2022/12/14 09:54:30;;;;;;;39.00;23.27;;;0.80;99.90;;;;;;5072559;28;20346;-50
2022/12/14 09:57:04;;;;;;;34.57;21.87;;;0.90;99.90;;;;;;5072130;28;20189;-50
2022/12/14 09:59:34;;;;;;;31.63;21.30;;;0.90;99.90;;;;;;5072375;28;20199;-50
2022/12/14 10:02:16;;;;;;;38.50;24.63;;;0.90;99.90;;;;;;5072076;28;20630;-50
2022/12/14 10:04:52;;;;;;;41.53;26.53;;;0.90;99.90;;;;;;5072505;28;20235;-50
2022/12/14 10:07:30;;;;;;;35.50;23.00;;;0.90;99.90;;;;;;5079467;28;20267;-50
2022/12/14 10:10:04;;;;;;;36.40;24.03;;;1.00;99.90;;;;;;5072302;28;20204;-51
2022/12/14 10:12:46;;;;;;;44.87;25.07;;;1.10;99.90;;;;;;5072241;28;20705;-50
2022/12/14 10:15:27;;;;;;;38.30;22.63;;;1.20;99.90;;;;;;5072088;28;20229;-50
2022/12/14 10:18:15;;;;;;;37.03;23.97;;;1.20;99.90;;;;;;5072251;28;20605;-50
2022/12/14 10:20:51;;;;;;;37.70;23.07;;;1.30;99.90;;;;;;5072118;28;20214;-50
2022/12/14 10:23:23;;;;;;;34.60;23.93;;;1.30;99.90;;;;;;5072385;28;20202;-50
2022/12/14 10:25:55;;;;;;;45.53;23.47;;;1.30;99.90;;;;;;5071047;28;20243;-51
2022/12/14 10:28:30;;;;;;;36.33;23.13;;;1.30;99.90;;;;;;5071882;28;20221;-50
2022/12/14 10:31:00;;;;;;;35.80;24.07;;;1.30;99.90;;;;;;5051835;28;20674;-50
2022/12/14 10:33:30;;;;;;;36.57;23.23;;;1.20;99.90;;;;;;5051624;28;20199;-51
2022/12/14 10:36:08;;;;;;;40.07;24.60;;;1.10;99.90;;;;;;5051630;28;20228;-55
2022/12/14 10:38:44;;;;;;;47.17;27.33;;;1.10;99.90;;;;;;5071543;28;20326;-50
2022/12/14 10:41:19;;;;;;;37.27;22.83;;;1.00;99.90;;;;;;5071714;28;20212;-50
2022/12/14 10:43:56;;;;;;;36.20;24.70;;;1.10;99.90;;;;;;5070884;28;20218;-50
2022/12/14 10:46:36;;;;;;;41.63;24.40;;;1.10;99.90;;;;;;5071683;28;20289;-51
2022/12/14 10:49:13;;;;;;;34.47;24.30;;;1.10;99.90;;;;;;5071554;28;20202;-50
2022/12/14 10:51:44;;;;;;;40.83;26.33;;;1.00;99.90;;;;;;5071280;28;20207;-51
2022/12/14 10:54:33;;;;;;;37.73;24.27;;;1.00;99.90;;;;;;5070789;28;20225;-50
2022/12/14 10:57:01;;;;;;;38.73;25.07;;;1.00;99.90;;;;;;5051340;28;20225;-50
2022/12/14 10:59:31;;;;;;;43.17;28.00;;;1.10;99.90;;;;;;5064734;28;20194;-50
2022/12/14 11:02:04;;;;;;;37.03;24.37;;;1.20;99.90;;;;;;5065829;28;20194;-50
2022/12/14 11:04:34;;;;;;;34.43;23.40;;;1.20;99.90;;;;;;5067257;28;20231;-51
2022/12/14 11:07:03;;;;;;;29.43;20.93;;;1.20;99.90;;;;;;5060081;28;20230;-50
2022/12/14 11:09:32;;;;;;;29.07;20.60;;;1.20;99.90;;;;;;5062755;28;20295;-50
2022/12/14 11:12:02;;;;;;;29.33;20.57;;;1.30;99.90;;;;;;5065346;28;20266;-50
2022/12/14 11:14:30;;;;;;;33.37;24.00;;;1.30;99.90;;;;;;5069792;28;20222;-50
2022/12/14 11:16:57;;;;;;;34.00;26.00;;;1.20;99.90;;;;;;5049910;28;20443;-51
2022/12/14 11:19:26;;;;;;;32.27;22.63;;;1.30;99.90;;;;;;5050709;28;20709;-50
2022/12/14 11:22:07;;;;;;;35.40;25.70;;;1.30;99.90;;;;;;5056442;28;20733;-51
2022/12/14 11:24:44;;;;;;;28.83;21.33;;;1.50;99.90;;;;;;5062774;28;20705;-51
2022/12/14 11:27:11;;;;;;;40.67;28.10;;;1.60;99.90;;;;;;5062288;28;20879;-50
2022/12/14 11:29:40;;;;;;;46.57;26.40;;;1.70;99.90;;;;;;5073101;28;20578;-50
2022/12/14 11:32:16;;;;;;;35.67;24.30;;;1.80;99.90;;;;;;5070642;28;20744;-51
2022/12/14 11:34:43;;;;;;;34.93;23.60;;;1.80;99.90;;;;;;5061166;28;20222;-51
2022/12/14 11:37:19;;;;;;;37.13;23.07;;;1.90;99.90;;;;;;5061363;28;20199;-50
2022/12/14 11:39:51;;;;;;;39.00;25.17;;;2.00;99.90;;;;;;5051415;28;20202;-50
2022/12/14 11:42:21;;;;;;;40.10;25.53;;;2.00;99.90;;;;;;5070589;28;20210;-50
2022/12/14 11:44:49;;;;;;;42.57;25.03;;;2.10;99.90;;;;;;5070404;28;20226;-51
2022/12/14 11:47:18;;;;;;;41.30;25.20;;;2.20;99.90;;;;;;5061916;28;20234;-51
2022/12/14 11:49:47;;;;;;;37.00;24.23;;;2.30;99.90;;;;;;5070412;28;20199;-50
2022/12/14 11:52:18;;;;;;;34.83;22.33;;;2.50;99.90;;;;;;5067065;28;20207;-50
2022/12/14 11:54:48;;;;;;;32.93;24.97;;;2.60;99.90;;;;;;5066831;28;20229;-50
2022/12/14 11:57:23;;;;;;;35.07;24.73;;;2.70;99.90;;;;;;5064344;28;20205;-51
2022/12/14 11:59:52;;;;;;;35.53;23.53;;;3.00;99.90;;;;;;5058778;28;20590;-50
2022/12/14 12:02:25;;;;;;;31.70;21.23;;;3.00;99.90;;;;;;5063382;28;20193;-50
2022/12/14 12:04:56;;;;;;;29.77;20.17;;;3.00;99.90;;;;;;5069605;28;20268;-51
2022/12/14 12:07:32;;;;;;;26.60;19.67;;;3.10;99.90;;;;;;5070859;28;20579;-49
2022/12/14 12:10:18;;;;;;;26.67;18.23;;;3.10;99.90;;;;;;5070643;28;20199;-51
2022/12/14 12:12:51;;;;;;;28.60;19.53;;;3.10;99.90;;;;;;5070808;28;20206;-52
2022/12/14 12:15:23;;;;;;;27.73;19.30;;;3.10;99.90;;;;;;5070421;28;20223;-50
2022/12/14 12:17:54;;;;;;;28.27;19.93;;;3.10;99.90;;;;;;5068915;28;20207;-50
2022/12/14 12:20:27;;;;;;;26.20;18.13;;;3.00;99.90;;;;;;5060811;28;20209;-50
2022/12/14 12:22:59;;;;;;;28.63;21.17;;;3.00;99.90;;;;;;5060561;28;20207;-53
2022/12/14 12:25:32;;;;;;;29.93;19.60;;;2.90;99.90;;;;;;5059408;28;20293;-49
2022/12/14 12:28:11;;;;;;;27.17;19.60;;;2.90;99.90;;;;;;5060261;28;22059;-50
2022/12/14 12:30:42;;;;;;;26.70;18.90;;;3.00;99.90;;;;;;5058089;28;20203;-51
2022/12/14 12:33:20;;;;;;;27.53;18.83;;;3.10;99.90;;;;;;5061929;28;20218;-51
2022/12/14 12:35:52;;;;;;;27.30;19.77;;;3.00;99.90;;;;;;5063079;28;20222;-50
2022/12/14 12:38:29;;;;;;;27.73;20.53;;;2.80;99.90;;;;;;5060135;28;20218;-50
2022/12/14 12:41:05;;;;;;;27.53;19.17;;;3.00;99.90;;;;;;5064957;28;20203;-50
2022/12/14 12:43:37;;;;;;;41.17;25.10;;;3.00;99.90;;;;;;5064335;28;20201;-50
2022/12/14 12:46:12;;;;;;;31.83;21.80;;;2.90;99.90;;;;;;5069703;28;20223;-50
2022/12/14 12:48:46;;;;;;;32.97;22.53;;;2.90;99.90;;;;;;5065498;28;20234;-51
2022/12/14 12:51:19;;;;;;;30.70;20.67;;;2.90;99.90;;;;;;5064682;28;20210;-51
2022/12/14 12:53:52;;;;;;;30.97;21.50;;;2.90;99.90;;;;;;5064468;28;20804;-50
2022/12/14 12:56:25;;;;;;;29.97;21.83;;;2.80;99.90;;;;;;5063542;28;20203;-51
2022/12/14 12:58:53;;;;;;;29.63;21.30;;;2.50;99.90;;;;;;5064408;28;20199;-50
2022/12/14 13:01:27;;;;;;;35.03;23.90;;;2.30;99.90;;;;;;5064943;28;20203;-50
2022/12/14 13:03:58;;;;;;;28.67;22.00;;;2.20;99.90;;;;;;5068205;28;20198;-50